createdAt,value
2022-12-13T00:01:50.356Z,-3.85
2022-12-13T00:04:20.395Z,-3.84
2022-12-13T00:06:48.901Z,-3.83
2022-12-13T00:09:18.283Z,-3.75
2022-12-13T00:11:46.191Z,-3.71
2022-12-13T00:14:14.340Z,-3.66
2022-12-13T00:16:45.678Z,-3.61
2022-12-13T00:19:13.194Z,-3.55
2022-12-13T00:21:43.011Z,-3.59
2022-12-13T00:24:09.964Z,-3.62
2022-12-13T00:26:38.641Z,-3.67
2022-12-13T00:29:07.352Z,-3.77
2022-12-13T00:34:25.292Z,-4.05
2022-12-13T00:36:59.230Z,-4.06
2022-12-13T00:39:26.657Z,-4.13
2022-12-13T00:41:56.375Z,-4.18
2022-12-13T00:44:23.620Z,-4.22
2022-12-13T00:46:53.940Z,-4.27
2022-12-13T00:49:21.241Z,-4.33
2022-12-13T00:51:51.957Z,-4.37
2022-12-13T00:54:21.545Z,-4.45
2022-12-13T00:56:51.260Z,-4.54
2022-12-13T00:59:18.315Z,-4.54
2022-12-13T01:01:45.719Z,-4.53
2022-12-13T01:04:13.587Z,-4.61
2022-12-13T01:06:43.677Z,-4.71
2022-12-13T01:09:20.671Z,-4.76
2022-12-13T01:11:49.127Z,-4.83
2022-12-13T01:14:16.824Z,-4.82
2022-12-13T01:16:44.135Z,-4.83
2022-12-13T01:19:11.416Z,-4.79
2022-12-13T01:21:39.086Z,-4.84
2022-12-13T01:24:06.947Z,-4.82
2022-12-13T01:26:34.656Z,-4.89
2022-12-13T01:29:02.080Z,-4.83
2022-12-13T01:31:29.349Z,-4.94
2022-12-13T01:33:57.108Z,-5.01
2022-12-13T01:36:28.151Z,-5.01
2022-12-13T01:38:59.389Z,-5.06
2022-12-13T01:41:28.864Z,-5.14
2022-12-13T01:44:01.441Z,-5.25
2022-12-13T01:46:31.489Z,-5.25
2022-12-13T01:49:20.454Z,-5.33
2022-12-13T01:52:01.127Z,-5.35
2022-12-13T01:54:39.651Z,-5.38
2022-12-13T01:57:17.952Z,-5.41
2022-12-13T01:59:45.989Z,-5.48
2022-12-13T02:02:15.023Z,-5.54
2022-12-13T02:04:48.707Z,-5.59
2022-12-13T02:07:23.091Z,-5.70
2022-12-13T02:09:57.157Z,-5.74
2022-12-13T02:12:30.764Z,-5.79
2022-12-13T02:15:05.293Z,-5.82
2022-12-13T02:17:45.340Z,-5.84
2022-12-13T02:20:22.507Z,-5.86
2022-12-13T02:23:07.229Z,-5.84
2022-12-13T02:25:53.267Z,-5.86
2022-12-13T02:28:39.191Z,-5.93
2022-12-13T02:31:14.994Z,-5.94
2022-12-13T02:34:08.611Z,-5.99
2022-12-13T02:36:50.012Z,-6.03
2022-12-13T02:39:31.139Z,-6.08
2022-12-13T02:42:26.937Z,-6.15
2022-12-13T02:45:01.362Z,-6.15
2022-12-13T02:47:34.176Z,-6.17
2022-12-13T02:50:06.293Z,-6.26
2022-12-13T02:52:34.753Z,-6.30
2022-12-13T02:55:07.284Z,-6.36
2022-12-13T02:57:41.084Z,-6.35
2022-12-13T03:00:14.505Z,-6.37
2022-12-13T03:03:07.265Z,-6.34
2022-12-13T03:06:09.100Z,-6.33
2022-12-13T03:08:48.670Z,-6.32
2022-12-13T03:11:19.611Z,-6.29
2022-12-13T03:14:03.375Z,-6.31
2022-12-13T03:16:38.077Z,-6.33
2022-12-13T03:19:07.834Z,-6.33
2022-12-13T03:21:48.597Z,-6.34
2022-12-13T03:24:21.199Z,-6.42
2022-12-13T03:26:52.422Z,-6.55
2022-12-13T03:29:23.879Z,-6.64
2022-12-13T03:31:53.286Z,-6.68
2022-12-13T03:34:22.933Z,-6.72
2022-12-13T03:36:53.734Z,-6.64
2022-12-13T03:39:21.366Z,-6.66
2022-12-13T03:41:50.333Z,-6.68
2022-12-13T03:44:17.415Z,-6.70
2022-12-13T03:46:47.425Z,-6.78
2022-12-13T03:49:17.307Z,-6.81
2022-12-13T03:51:45.587Z,-6.84
2022-12-13T03:54:12.827Z,-6.83
2022-12-13T03:56:40.053Z,-6.83
2022-12-13T03:59:07.073Z,-6.90
2022-12-13T04:01:36.587Z,-6.87
2022-12-13T04:04:03.719Z,-6.87
2022-12-13T04:06:33.452Z,-6.87
2022-12-13T04:09:00.659Z,-6.96
2022-12-13T04:11:46.442Z,-6.94
2022-12-13T04:14:22.795Z,-6.93
2022-12-13T04:16:53.601Z,-6.96
2022-12-13T04:19:24.083Z,-7.00
2022-12-13T04:21:54.716Z,-7.05
2022-12-13T04:24:31.916Z,-7.03
2022-12-13T04:27:02.283Z,-7.00
2022-12-13T04:29:34.334Z,-7.03
2022-12-13T04:32:04.137Z,-7.08
2022-12-13T04:34:36.848Z,-7.13
2022-12-13T04:37:05.808Z,-7.13
2022-12-13T04:39:35.588Z,-7.16
2022-12-13T04:42:03.481Z,-7.22
2022-12-13T04:44:36.508Z,-7.22
2022-12-13T04:47:04.997Z,-7.24
2022-12-13T04:49:32.042Z,-7.31
2022-12-13T04:52:05.422Z,-7.33
2022-12-13T04:54:36.514Z,-7.34
2022-12-13T04:57:07.363Z,-7.35
2022-12-13T04:59:34.507Z,-7.39
2022-12-13T05:02:01.888Z,-7.40
2022-12-13T05:04:32.908Z,-7.42
2022-12-13T05:07:02.368Z,-7.46
2022-12-13T05:09:29.549Z,-7.48
2022-12-13T05:12:01.583Z,-7.55
2022-12-13T05:14:31.632Z,-7.57
2022-12-13T05:17:01.837Z,-7.61
2022-12-13T05:19:31.300Z,-7.62
2022-12-13T05:22:02.908Z,-7.58
2022-12-13T05:24:31.404Z,-7.57
2022-12-13T05:26:59.400Z,-7.57
2022-12-13T05:29:28.927Z,-7.55
2022-12-13T05:31:56.306Z,-7.60
2022-12-13T05:34:23.324Z,-7.66
2022-12-13T05:36:51.008Z,-7.66
2022-12-13T05:39:28.240Z,-7.63
2022-12-13T05:42:02.049Z,-7.61
2022-12-13T05:44:32.915Z,-7.63
2022-12-13T05:47:02.375Z,-7.64
2022-12-13T05:49:33.280Z,-7.65
2022-12-13T05:52:00.601Z,-7.70
2022-12-13T05:54:27.720Z,-7.68
2022-12-13T05:56:55.233Z,-7.67
2022-12-13T05:59:22.238Z,-7.66
2022-12-13T06:01:49.665Z,-7.68
2022-12-13T06:04:23.186Z,-7.73
2022-12-13T06:06:52.238Z,-7.79
2022-12-13T06:09:20.540Z,-7.79
2022-12-13T06:11:48.976Z,-7.79
2022-12-13T06:14:22.543Z,-7.86
2022-12-13T06:16:52.404Z,-7.90
2022-12-13T06:19:20.952Z,-7.92
2022-12-13T06:21:48.706Z,-7.89
2022-12-13T06:24:20.171Z,-7.88
2022-12-13T06:26:48.079Z,-7.88
2022-12-13T06:29:23.714Z,-7.93
2022-12-13T06:32:02.207Z,-7.96
2022-12-13T06:34:32.495Z,-7.96
2022-12-13T06:37:00.696Z,-8.00
2022-12-13T06:39:32.300Z,-8.01
2022-12-13T06:42:03.389Z,-8.01
2022-12-13T06:44:30.485Z,-8.03
2022-12-13T06:47:11.659Z,-8.06
2022-12-13T06:49:42.944Z,-8.04
2022-12-13T06:52:12.851Z,-8.07
2022-12-13T06:54:40.695Z,-7.99
2022-12-13T06:57:08.168Z,-7.94
2022-12-13T06:59:35.878Z,-7.98
2022-12-13T07:02:04.530Z,-7.93
2022-12-13T07:04:32.843Z,-7.93
2022-12-13T07:07:00.981Z,-7.89
2022-12-13T07:09:32.347Z,-7.72
2022-12-13T07:12:00.460Z,-7.64
2022-12-13T07:14:27.520Z,-7.61
2022-12-13T07:17:01.382Z,-7.42
2022-12-13T07:19:35.257Z,-7.34
2022-12-13T07:22:09.686Z,-7.23
2022-12-13T07:24:37.392Z,-7.09
2022-12-13T07:27:05.157Z,-6.86
2022-12-13T07:29:34.629Z,-6.04
2022-12-13T07:32:02.386Z,-5.28
2022-12-13T07:34:30.458Z,-4.09
2022-12-13T07:36:58.169Z,-2.50
2022-12-13T07:39:26.402Z,-1.44
2022-12-13T07:41:57.363Z,-0.64
2022-12-13T07:44:24.617Z,0.00
2022-12-13T07:46:52.660Z,0.24
2022-12-13T07:49:22.421Z,0.55
2022-12-13T07:51:49.768Z,0.38
2022-12-13T07:54:17.129Z,0.23
2022-12-13T07:56:44.669Z,-0.18
2022-12-13T07:59:13.216Z,-0.59
2022-12-13T08:01:40.509Z,-1.14
2022-12-13T08:04:10.072Z,-1.37
2022-12-13T08:06:39.598Z,-1.62
2022-12-13T08:09:06.966Z,-2.02
2022-12-13T08:11:34.651Z,-2.52
2022-12-13T08:14:01.964Z,-2.48
2022-12-13T08:16:30.577Z,-2.75
2022-12-13T08:19:01.979Z,-2.99
2022-12-13T08:21:57.149Z,-2.94
2022-12-13T08:24:29.273Z,-2.65
2022-12-13T08:27:02.162Z,-3.11
2022-12-13T08:29:33.543Z,-2.92
2022-12-13T08:32:08.374Z,-3.02
2022-12-13T08:34:35.585Z,-3.28
2022-12-13T08:37:04.341Z,-3.22
2022-12-13T08:39:37.402Z,-2.98
2022-12-13T08:42:18.771Z,-2.85
2022-12-13T08:44:48.919Z,-2.56
2022-12-13T08:47:23.082Z,-2.74
2022-12-13T08:49:51.238Z,-2.56
2022-12-13T08:52:19.443Z,-2.44
2022-12-13T08:54:48.705Z,-2.45
2022-12-13T08:57:15.958Z,-2.67
2022-12-13T08:59:43.007Z,-2.46
2022-12-13T09:02:13.910Z,-2.30
2022-12-13T09:04:45.871Z,-2.33
2022-12-13T09:07:13.672Z,-2.32
2022-12-13T09:09:40.672Z,-2.21
2022-12-13T09:12:10.280Z,-2.23
2022-12-13T09:14:45.669Z,-2.07
2022-12-13T09:17:24.819Z,-1.98
2022-12-13T09:19:57.943Z,-1.95
2022-12-13T09:22:34.025Z,-1.90
2022-12-13T09:25:04.615Z,-1.99
2022-12-13T09:27:39.832Z,-1.92
2022-12-13T09:30:10.848Z,-1.89
2022-12-13T09:32:38.176Z,-1.92
2022-12-13T09:35:05.743Z,-1.89
2022-12-13T09:37:33.144Z,-1.91
2022-12-13T09:40:00.129Z,-1.81
2022-12-13T09:43:08.329Z,-1.87
2022-12-13T09:45:44.232Z,-1.87
2022-12-13T09:48:22.779Z,-1.80
2022-12-13T09:50:58.241Z,-1.85
2022-12-13T09:53:40.608Z,-1.77
2022-12-13T09:56:13.090Z,-1.71
2022-12-13T09:58:40.555Z,-1.70
2022-12-13T10:01:07.809Z,-1.64
2022-12-13T10:03:35.190Z,-1.73
2022-12-13T10:06:22.742Z,-1.92
2022-12-13T10:08:59.352Z,-1.94
2022-12-13T10:11:31.399Z,-1.99
2022-12-13T10:14:09.705Z,-1.85
2022-12-13T10:16:37.231Z,-1.76
2022-12-13T10:19:28.915Z,-1.78
2022-12-13T10:22:01.844Z,-1.76
2022-12-13T10:24:56.190Z,-1.82
2022-12-13T10:27:29.165Z,-1.86
2022-12-13T10:30:08.029Z,-1.79
2022-12-13T10:32:57.557Z,-1.97
2022-12-13T10:35:38.027Z,-2.15
2022-12-13T10:38:11.480Z,-2.07
2022-12-13T10:40:48.876Z,-1.93
2022-12-13T10:43:17.414Z,-2.02
2022-12-13T10:45:58.960Z,-1.94
2022-12-13T10:48:31.518Z,-1.76
2022-12-13T10:51:15.557Z,-1.85
2022-12-13T10:53:48.370Z,-1.84
2022-12-13T10:56:22.889Z,-1.76
2022-12-13T10:59:13.387Z,-1.57
2022-12-13T11:01:44.789Z,-1.59
2022-12-13T11:04:33.114Z,-1.54
2022-12-13T11:07:33.270Z,-1.65
2022-12-13T11:10:18.490Z,-1.61
2022-12-13T11:12:50.116Z,-1.64
2022-12-13T11:15:23.071Z,-1.60
2022-12-13T11:17:55.812Z,-1.48
2022-12-13T11:20:26.120Z,-1.46
2022-12-13T11:23:24.035Z,-1.37
2022-12-13T11:25:56.612Z,-1.38
2022-12-13T11:28:53.398Z,-1.37
2022-12-13T11:31:47.875Z,-1.36
2022-12-13T11:34:24.119Z,-1.36
2022-12-13T11:36:57.535Z,-1.28
2022-12-13T11:39:32.417Z,-1.17
2022-12-13T11:42:24.958Z,-1.17
2022-12-13T11:45:07.435Z,-1.20
2022-12-13T11:47:43.394Z,-1.07
2022-12-13T11:50:41.145Z,-1.04
2022-12-13T11:53:29.196Z,-1.05
2022-12-13T11:56:05.932Z,-0.88
2022-12-13T11:59:01.677Z,-0.90
2022-12-13T12:01:32.791Z,-0.87
2022-12-13T12:04:39.975Z,-0.79
2022-12-13T12:07:35.942Z,-0.75
2022-12-13T12:10:36.096Z,-0.85
2022-12-13T12:13:12.913Z,-0.79
2022-12-13T12:15:46.533Z,-0.74
2022-12-13T12:18:16.530Z,-0.84
2022-12-13T12:20:53.562Z,-0.85
2022-12-13T12:23:48.372Z,-0.84
2022-12-13T12:26:22.008Z,-0.80
2022-12-13T12:29:28.805Z,-0.76
2022-12-13T12:32:02.697Z,-0.72
2022-12-13T12:34:53.186Z,-0.68
2022-12-13T12:37:47.350Z,-0.66
2022-12-13T12:41:15.615Z,-0.58
2022-12-13T12:43:42.426Z,-0.50
2022-12-13T12:47:17.773Z,-0.45
2022-12-13T12:49:30.815Z,-0.45
2022-12-13T12:52:21.437Z,-0.40
2022-12-13T12:55:16.217Z,-0.43
2022-12-13T12:58:31.084Z,-0.43
2022-12-13T13:01:01.156Z,-0.41
2022-12-13T13:03:32.815Z,-0.43
2022-12-13T13:06:04.742Z,-0.45
2022-12-13T13:08:35.858Z,-0.44
2022-12-13T13:11:06.039Z,-0.42
2022-12-13T13:14:01.698Z,-0.47
2022-12-13T13:16:35.169Z,-0.53
2022-12-13T13:19:11.563Z,-0.56
2022-12-13T13:21:43.022Z,-0.57
2022-12-13T13:24:13.495Z,-0.62
2022-12-13T13:26:51.123Z,-0.66
2022-12-13T13:29:27.194Z,-0.68
2022-12-13T13:32:01.878Z,-0.69
2022-12-13T13:34:33.238Z,-0.73
2022-12-13T13:37:02.207Z,-0.75
2022-12-13T13:39:31.785Z,-0.77
2022-12-13T13:42:09.631Z,-0.81
2022-12-13T13:44:46.005Z,-0.85
2022-12-13T13:47:21.146Z,-0.89
2022-12-13T13:50:02.440Z,-0.94
2022-12-13T13:52:51.369Z,-0.98
2022-12-13T13:55:44.748Z,-1.00
2022-12-13T13:58:33.069Z,-1.05
2022-12-13T14:01:23.471Z,-1.03
2022-12-13T14:04:09.027Z,-1.08
2022-12-13T14:06:45.371Z,-1.12
2022-12-13T14:09:21.308Z,-1.17
2022-12-13T14:12:07.390Z,-1.20
2022-12-13T14:15:01.407Z,-1.32
2022-12-13T14:17:56.863Z,-1.35
2022-12-13T14:20:30.343Z,-1.40
2022-12-13T14:23:36.146Z,-1.44
2022-12-13T14:26:24.793Z,-1.61
2022-12-13T14:29:00.459Z,-1.67
2022-12-13T14:31:39.363Z,-1.70
2022-12-13T14:34:08.332Z,-1.74
2022-12-13T14:36:39.228Z,-1.79
2022-12-13T14:39:24.492Z,-1.90
2022-12-13T14:41:56.865Z,-2.05
2022-12-13T14:44:36.391Z,-2.12
2022-12-13T14:47:06.769Z,-2.22
2022-12-13T14:49:38.405Z,-2.17
2022-12-13T14:52:26.121Z,-2.28
2022-12-13T14:55:06.914Z,-2.41
2022-12-13T14:57:36.437Z,-2.49
2022-12-13T15:00:40.210Z,-2.53
2022-12-13T15:03:08.050Z,-2.50
2022-12-13T15:05:47.153Z,-2.49
2022-12-13T15:08:19.595Z,-2.65
2022-12-13T15:10:48.889Z,-2.79
2022-12-13T15:13:29.246Z,-2.91
2022-12-13T15:16:10.287Z,-2.92
2022-12-13T15:18:40.836Z,-2.89
2022-12-13T15:21:23.389Z,-2.99
2022-12-13T15:24:05.307Z,-2.95
2022-12-13T15:26:35.553Z,-3.08
2022-12-13T15:29:09.464Z,-3.06
2022-12-13T15:31:39.033Z,-3.11
2022-12-13T15:34:28.244Z,-3.18
2022-12-13T15:37:07.001Z,-3.16
2022-12-13T15:39:48.251Z,-3.20
2022-12-13T15:42:21.878Z,-3.26
2022-12-13T15:44:56.091Z,-3.45
2022-12-13T15:47:28.314Z,-3.53
2022-12-13T15:50:01.131Z,-3.64
2022-12-13T15:52:28.927Z,-3.70
2022-12-13T15:54:59.749Z,-3.71
2022-12-13T15:57:30.090Z,-3.75
2022-12-13T16:00:30.910Z,-3.76
2022-12-13T16:03:17.937Z,-3.84
2022-12-13T16:05:52.093Z,-3.85
2022-12-13T16:08:30.753Z,-3.82
2022-12-13T16:10:58.419Z,-3.74
2022-12-13T16:13:29.000Z,-3.72
2022-12-13T16:16:27.240Z,-3.68
2022-12-13T16:18:59.666Z,-3.76
2022-12-13T16:21:28.079Z,-3.76
2022-12-13T16:23:57.431Z,-3.75
2022-12-13T16:26:29.595Z,-3.78
2022-12-13T16:29:00.342Z,-3.82
2022-12-13T16:31:35.925Z,-3.88
2022-12-13T16:34:05.604Z,-3.87
2022-12-13T16:36:33.183Z,-3.89
2022-12-13T16:39:01.400Z,-3.95
2022-12-13T16:41:28.617Z,-3.98
2022-12-13T16:43:59.083Z,-4.03
2022-12-13T16:47:11.690Z,-4.05
2022-12-13T16:49:25.329Z,-4.05
2022-12-13T16:51:53.462Z,-4.10
2022-12-13T16:54:22.916Z,-4.14
2022-12-13T16:56:51.808Z,-4.12
2022-12-13T16:59:22.882Z,-4.22
2022-12-13T17:01:53.899Z,-4.21
2022-12-13T17:04:24.896Z,-4.28
2022-12-13T17:06:55.071Z,-4.23
2022-12-13T17:09:33.621Z,-4.33
2022-12-13T17:12:01.261Z,-4.35
2022-12-13T17:14:29.107Z,-4.40
2022-12-13T17:16:57.270Z,-4.51
2022-12-13T17:19:25.544Z,-4.52
2022-12-13T17:21:56.358Z,-4.54
2022-12-13T17:24:25.061Z,-4.64
2022-12-13T17:26:57.341Z,-4.65
2022-12-13T17:29:25.364Z,-4.62
2022-12-13T17:31:54.975Z,-4.65
2022-12-13T17:34:23.136Z,-4.70
2022-12-13T17:36:52.826Z,-4.74
2022-12-13T17:39:22.542Z,-4.78
2022-12-13T17:41:55.668Z,-4.84
2022-12-13T17:44:25.651Z,-4.82
2022-12-13T17:46:55.528Z,-4.77
2022-12-13T17:49:24.573Z,-4.79
2022-12-13T17:51:54.666Z,-4.85
2022-12-13T17:54:24.150Z,-4.87
2022-12-13T17:56:52.863Z,-4.84
2022-12-13T17:59:21.959Z,-4.82
2022-12-13T18:01:49.943Z,-4.82
2022-12-13T18:04:18.348Z,-4.83
2022-12-13T18:06:47.341Z,-4.85
2022-12-13T18:09:15.695Z,-4.85
2022-12-13T18:11:44.949Z,-4.93
2022-12-13T18:14:13.104Z,-5.02
2022-12-13T18:16:40.897Z,-4.98
2022-12-13T18:19:12.058Z,-4.98
2022-12-13T18:21:40.047Z,-5.01
2022-12-13T18:24:08.599Z,-5.01
2022-12-13T18:26:37.529Z,-5.09
2022-12-13T18:29:06.088Z,-5.15
2022-12-13T18:31:34.336Z,-5.20
2022-12-13T18:34:02.842Z,-5.22
2022-12-13T18:36:31.596Z,-5.20
2022-12-13T18:39:00.193Z,-5.14
2022-12-13T18:41:30.085Z,-5.20
2022-12-13T18:44:00.768Z,-5.20
2022-12-13T18:46:31.385Z,-5.22
2022-12-13T18:48:59.389Z,-5.21
2022-12-13T18:51:27.965Z,-5.15
2022-12-13T18:53:58.556Z,-5.24
2022-12-13T18:56:31.171Z,-5.21
2022-12-13T18:59:01.078Z,-5.33
2022-12-13T19:01:28.854Z,-5.36
2022-12-13T19:03:57.057Z,-5.42
2022-12-13T19:06:27.874Z,-5.43
2022-12-13T19:09:00.267Z,-5.41
2022-12-13T19:11:29.740Z,-5.43
2022-12-13T19:14:01.235Z,-5.47
2022-12-13T19:16:29.886Z,-5.56
2022-12-13T19:18:59.673Z,-5.51
2022-12-13T19:21:29.869Z,-5.52
2022-12-13T19:23:59.199Z,-5.48
2022-12-13T19:26:30.253Z,-5.47
2022-12-13T19:28:59.751Z,-5.45
2022-12-13T19:31:32.025Z,-5.46
2022-12-13T19:34:04.452Z,-5.40
2022-12-13T19:36:34.396Z,-5.37
2022-12-13T19:39:03.897Z,-5.38
2022-12-13T19:41:35.559Z,-5.47
2022-12-13T19:44:07.009Z,-5.54
2022-12-13T19:46:37.534Z,-5.57
2022-12-13T19:49:07.057Z,-5.64
2022-12-13T19:51:39.891Z,-5.56
2022-12-13T19:54:13.704Z,-5.56
2022-12-13T19:56:44.949Z,-5.54
2022-12-13T19:59:16.247Z,-5.57
2022-12-13T20:01:48.039Z,-5.59
2022-12-13T20:04:17.363Z,-5.60
2022-12-13T20:06:45.395Z,-5.56
2022-12-13T20:09:14.799Z,-5.48
2022-12-13T20:11:43.496Z,-5.49
2022-12-13T20:14:14.075Z,-5.46
2022-12-13T20:16:44.298Z,-5.44
2022-12-13T20:19:13.728Z,-5.46
2022-12-13T20:21:42.779Z,-5.44
2022-12-13T20:24:12.882Z,-5.44
2022-12-13T20:26:41.696Z,-5.49
2022-12-13T20:29:14.092Z,-5.51
2022-12-13T20:31:42.835Z,-5.47
2022-12-13T20:34:18.578Z,-5.45
2022-12-13T20:36:47.543Z,-5.47
2022-12-13T20:39:16.796Z,-5.49
2022-12-13T20:41:47.231Z,-5.49
2022-12-13T20:44:20.329Z,-5.58
2022-12-13T20:46:53.236Z,-5.63
2022-12-13T20:49:22.865Z,-5.56
2022-12-13T20:51:54.621Z,-5.61
2022-12-13T20:54:23.599Z,-5.71
2022-12-13T20:56:52.623Z,-5.74
2022-12-13T20:59:22.137Z,-5.65
2022-12-13T21:01:50.241Z,-5.69
2022-12-13T21:04:18.958Z,-5.70
2022-12-13T21:06:47.026Z,-5.72
2022-12-13T21:09:19.175Z,-5.66
2022-12-13T21:11:50.383Z,-5.62
2022-12-13T21:14:23.413Z,-5.56
2022-12-13T21:16:56.638Z,-5.38
2022-12-13T21:19:39.384Z,-5.20
2022-12-13T21:22:07.643Z,-5.10
2022-12-13T21:24:35.711Z,-5.07
2022-12-13T21:27:03.452Z,-5.01
2022-12-13T21:29:30.854Z,-4.96
2022-12-13T21:31:57.953Z,-4.88
2022-12-13T21:34:25.924Z,-4.86
2022-12-13T21:36:53.491Z,-4.78
2022-12-13T21:39:29.642Z,-4.73
2022-12-13T21:41:57.926Z,-4.77
2022-12-13T21:44:25.230Z,-4.81
2022-12-13T21:47:11.874Z,-4.81
2022-12-13T21:49:39.763Z,-4.84
2022-12-13T21:52:06.929Z,-4.91
2022-12-13T21:54:34.383Z,-4.91
2022-12-13T21:57:22.159Z,-4.91
2022-12-13T21:59:49.423Z,-4.88
2022-12-13T22:02:20.415Z,-4.90
2022-12-13T22:04:50.005Z,-4.96
2022-12-13T22:07:24.592Z,-5.01
2022-12-13T22:09:53.321Z,-4.99
2022-12-13T22:12:26.729Z,-5.01
2022-12-13T22:14:54.244Z,-5.07
2022-12-13T22:17:31.227Z,-5.11
2022-12-13T22:20:02.583Z,-4.99
2022-12-13T22:22:31.195Z,-5.00
2022-12-13T22:25:01.654Z,-4.96
2022-12-13T22:27:28.695Z,-4.92
2022-12-13T22:29:57.645Z,-4.99
2022-12-13T22:32:27.111Z,-5.02
2022-12-13T22:34:54.784Z,-5.03
2022-12-13T22:37:22.484Z,-5.02
2022-12-13T22:39:50.213Z,-4.99
2022-12-13T22:42:17.262Z,-4.93
2022-12-13T22:44:45.020Z,-4.87
2022-12-13T22:47:12.065Z,-4.86
2022-12-13T22:49:40.125Z,-4.85
2022-12-13T22:52:08.872Z,-4.86
2022-12-13T22:54:39.153Z,-4.89
2022-12-13T22:57:07.058Z,-4.91
2022-12-13T22:59:41.683Z,-4.88
2022-12-13T23:02:10.127Z,-4.96
2022-12-13T23:04:41.108Z,-4.99
2022-12-13T23:07:08.250Z,-4.96
2022-12-13T23:09:35.711Z,-4.98
2022-12-13T23:12:23.963Z,-5.00
2022-12-13T23:14:55.101Z,-4.94
2022-12-13T23:17:22.634Z,-4.95
2022-12-13T23:19:53.387Z,-4.98
2022-12-13T23:22:25.899Z,-5.01
2022-12-13T23:24:53.811Z,-4.99
2022-12-13T23:27:23.088Z,-4.98
2022-12-13T23:29:50.801Z,-5.02
2022-12-13T23:32:18.772Z,-4.95
2022-12-13T23:34:46.212Z,-4.95
2022-12-13T23:37:13.831Z,-4.96
2022-12-13T23:39:41.802Z,-4.87
2022-12-13T23:42:08.895Z,-4.85
2022-12-13T23:44:38.540Z,-4.85
2022-12-13T23:47:05.628Z,-4.89
2022-12-13T23:49:33.053Z,-4.90
2022-12-13T23:52:00.917Z,-4.93
2022-12-13T23:54:28.326Z,-4.94
2022-12-13T23:56:55.438Z,-4.96
2022-12-13T23:59:25.909Z,-4.95
